Time;durP1;ratioP1;P1;durP2;ratioP2;P2;SDS_P1;SDS_P2;PMS_P1;PMS_P2;Temp;Humidity;BMP_temperature;BMP_pressure;BME280_temperature;BME280_humidity;BME280_pressure;Samples;Min_cycle;Max_cycle;Signal;HPM_P1;HPM_P2
2023/09/15 00:00:17;;;;;;;9.75;8.55;;;;;;;20.22;65.93;95057.75;5116058;28;20191;-68
2023/09/15 00:02:45;;;;;;;10.15;8.20;;;;;;;20.20;66.18;95058.97;5114931;28;20247;-68
2023/09/15 00:05:12;;;;;;;9.20;8.40;;;;;;;20.18;66.23;95055.78;5116118;28;20206;-68
2023/09/15 00:07:39;;;;;;;9.40;8.60;;;;;;;20.17;65.81;95056.22;5115791;28;20591;-68
2023/09/15 00:10:08;;;;;;;10.00;9.10;;;;;;;20.14;66.04;95055.03;5115191;28;20200;-68
2023/09/15 00:12:37;;;;;;;9.55;8.50;;;;;;;20.13;66.09;95056.25;5115623;28;20202;-68
2023/09/15 00:15:07;;;;;;;9.77;8.27;;;;;;;20.12;65.36;95063.06;5096987;28;20242;-68
2023/09/15 00:17:36;;;;;;;8.88;8.02;;;;;;;20.12;65.17;95053.88;5100731;28;20198;-68
2023/09/15 00:20:12;;;;;;;11.18;8.95;;;;;;;20.16;65.24;95065.81;5032487;28;20183;-68
2023/09/15 00:22:38;;;;;;;9.57;8.60;;;;;;;20.20;64.86;95061.78;5032322;28;20235;-68
2023/09/15 00:25:07;;;;;;;10.30;9.38;;;;;;;20.25;64.21;95062.53;5100979;28;20217;-68
2023/09/15 00:27:37;;;;;;;12.68;11.45;;;;;;;20.31;63.93;95058.06;5032590;28;20537;-68
2023/09/15 00:30:06;;;;;;;12.73;11.38;;;;;;;20.34;63.38;95060.03;5100982;28;20255;-68
2023/09/15 00:32:34;;;;;;;11.32;10.23;;;;;;;20.36;63.31;95050.00;5032851;28;20210;-68
2023/09/15 00:35:02;;;;;;;10.18;8.70;;;;;;;20.39;63.35;95054.75;5100652;28;20198;-68
2023/09/15 00:37:29;;;;;;;10.00;9.10;;;;;;;20.41;62.82;95057.97;5032062;28;20198;-68
2023/09/15 00:39:57;;;;;;;10.02;9.18;;;;;;;20.46;63.10;95047.50;5101073;28;20209;-68
2023/09/15 00:42:26;;;;;;;10.05;9.15;;;;;;;20.48;62.77;95057.09;5031877;28;20225;-68
2023/09/15 00:44:55;;;;;;;9.70;8.80;;;;;;;20.51;62.92;95055.47;5104066;28;20206;-68
2023/09/15 00:47:24;;;;;;;11.60;9.13;;;;;;;20.51;63.07;95049.88;5038984;28;20178;-68
2023/09/15 00:49:54;;;;;;;10.07;9.20;;;;;;;20.53;63.20;95053.06;5107566;28;20250;-68
2023/09/15 00:52:22;;;;;;;10.05;8.80;;;;;;;20.47;63.46;95052.69;5038536;28;20182;-68
2023/09/15 00:54:50;;;;;;;10.10;9.20;;;;;;;20.40;64.09;95052.75;5107318;28;20202;-68
2023/09/15 00:57:18;;;;;;;10.00;9.10;;;;;;;20.30;64.11;95056.47;5038773;28;20208;-68
2023/09/15 00:59:45;;;;;;;9.55;8.75;;;;;;;20.26;64.53;95061.31;5038436;28;20191;-68
2023/09/15 01:02:15;;;;;;;9.48;8.57;;;;;;;20.22;64.46;95052.94;5038962;28;20190;-68
2023/09/15 01:04:43;;;;;;;9.95;8.98;;;;;;;20.15;64.61;95065.03;5107436;28;20262;-68
2023/09/15 01:07:12;;;;;;;9.65;8.85;;;;;;;20.08;64.88;95064.28;5038419;28;20226;-68
2023/09/15 01:09:39;;;;;;;10.50;9.50;;;;;;;19.99;65.50;95072.38;5107414;28;20198;-68
2023/09/15 01:12:08;;;;;;;10.60;9.38;;;;;;;19.91;65.44;95068.84;5107412;28;20221;-68
2023/09/15 01:14:37;;;;;;;9.77;8.88;;;;;;;19.89;66.07;95077.66;5038345;28;20204;-67
2023/09/15 01:17:11;;;;;;;10.77;9.85;;;;;;;19.89;65.68;95074.84;5038742;27;20214;-68
2023/09/15 01:19:54;;;;;;;10.43;9.43;;;;;;;19.85;66.17;95076.09;5038492;28;20194;-68
2023/09/15 01:23:01;;;;;;;11.00;9.75;;;;;;;19.83;66.04;95081.31;5038115;28;20259;-68
2023/09/15 01:26:04;;;;;;;10.30;9.32;;;;;;;19.80;66.28;95082.16;5042606;28;20691;-68
2023/09/15 01:28:49;;;;;;;10.68;9.68;;;;;;;19.79;66.07;95086.13;5107138;28;20190;-68
2023/09/15 01:31:18;;;;;;;11.10;9.82;;;;;;;19.76;66.23;95084.19;5038431;28;20186;-68
2023/09/15 01:33:45;;;;;;;9.93;8.93;;;;;;;19.73;66.40;95080.19;5107047;28;20535;-69
2023/09/15 01:36:13;;;;;;;10.75;9.65;;;;;;;19.71;66.58;95082.59;5106934;28;20186;-68
2023/09/15 01:38:41;;;;;;;10.18;9.18;;;;;;;19.70;67.01;95081.81;5107188;28;20206;-68
2023/09/15 01:41:08;;;;;;;10.20;9.40;;;;;;;19.73;66.93;95080.19;5038172;28;20609;-68
2023/09/15 01:43:36;;;;;;;10.40;9.48;;;;;;;19.78;66.15;95082.53;5107131;28;20556;-68
2023/09/15 01:46:04;;;;;;;9.80;9.00;;;;;;;19.83;65.72;95084.13;5106830;28;20256;-67
2023/09/15 01:48:34;;;;;;;9.35;8.55;;;;;;;19.85;65.64;95087.28;5038129;28;20233;-67
2023/09/15 01:51:02;;;;;;;10.63;9.60;;;;;;;19.85;65.18;95087.28;5038008;28;20194;-67
2023/09/15 01:53:31;;;;;;;10.10;9.20;;;;;;;19.89;64.89;95093.66;5038071;28;20187;-68
2023/09/15 01:55:59;;;;;;;10.15;9.30;;;;;;;19.93;64.34;95088.81;5035956;28;20216;-68
2023/09/15 01:58:27;;;;;;;10.40;9.50;;;;;;;19.96;64.24;95093.59;5034768;28;20187;-68
2023/09/15 02:00:56;;;;;;;11.27;10.38;;;;;;;19.97;64.22;95086.78;5103803;28;20202;-68
2023/09/15 02:03:23;;;;;;;11.02;10.02;;;;;;;19.96;64.60;95093.59;5034598;28;20229;-68
2023/09/15 02:05:51;;;;;;;10.65;9.65;;;;;;;19.91;65.05;95102.44;5034617;28;20175;-68
2023/09/15 02:08:20;;;;;;;10.65;9.68;;;;;;;19.88;65.11;95100.47;5034818;28;20203;-68
2023/09/15 02:10:47;;;;;;;10.90;9.80;;;;;;;19.86;65.16;95097.28;5034559;28;20202;-68
2023/09/15 02:13:15;;;;;;;10.55;9.57;;;;;;;19.83;65.42;95100.91;5034520;28;20202;-68
2023/09/15 02:15:42;;;;;;;10.38;9.38;;;;;;;19.82;65.24;95100.09;5116327;28;20227;-69
2023/09/15 02:18:11;;;;;;;10.70;9.70;;;;;;;19.81;65.53;95106.13;5118245;28;20199;-68
2023/09/15 02:20:40;;;;;;;10.43;9.43;;;;;;;19.80;65.43;95096.94;5117956;28;20206;-68
2023/09/15 02:23:09;;;;;;;11.35;10.15;;;;;;;19.75;65.95;95110.56;5118115;28;20195;-68
2023/09/15 02:25:36;;;;;;;9.77;8.88;;;;;;;19.65;65.98;95115.03;5117858;28;20220;-68
2023/09/15 02:28:05;;;;;;;10.70;9.70;;;;;;;19.57;66.07;95108.66;5118161;28;20184;-68
2023/09/15 02:30:33;;;;;;;11.48;10.43;;;;;;;19.49;66.52;95109.91;5117657;28;20191;-68
2023/09/15 02:33:01;;;;;;;10.75;9.65;;;;;;;19.48;66.54;95113.91;5117195;28;20252;-68
2023/09/15 02:35:32;;;;;;;10.60;9.60;;;;;;;19.47;66.43;95115.91;5117055;28;20198;-68
2023/09/15 02:38:00;;;;;;;10.30;9.45;;;;;;;19.53;66.06;95127.47;5116929;28;20674;-68
2023/09/15 02:40:32;;;;;;;10.73;9.63;;;;;;;19.57;66.36;95114.25;5117104;28;20202;-68
2023/09/15 02:43:00;;;;;;;10.10;9.20;;;;;;;19.64;66.04;95121.81;5117017;28;20196;-68
2023/09/15 02:45:29;;;;;;;10.63;9.70;;;;;;;19.68;65.60;95119.78;5116903;28;20657;-68
2023/09/15 02:47:59;;;;;;;11.25;9.90;;;;;;;19.71;65.75;95118.97;5117793;28;20188;-68
2023/09/15 02:50:27;;;;;;;10.70;9.70;;;;;;;19.66;65.72;95120.22;5117784;28;20192;-68
2023/09/15 02:52:55;;;;;;;10.90;9.90;;;;;;;19.59;66.48;95119.44;5116671;28;20603;-68
2023/09/15 02:55:23;;;;;;;10.90;10.00;;;;;;;19.52;66.22;95131.47;5116723;28;20191;-68
2023/09/15 02:57:55;;;;;;;12.15;10.70;;;;;;;19.45;66.65;95126.72;5117234;28;20580;-68
2023/09/15 03:00:23;;;;;;;10.73;9.65;;;;;;;19.39;66.90;95133.97;5116650;28;20199;-68
2023/09/15 03:02:51;;;;;;;10.23;9.30;;;;;;;19.37;66.99;95125.16;5116423;28;20195;-67
2023/09/15 03:05:20;;;;;;;10.40;9.38;;;;;;;19.41;66.95;95133.53;5117361;28;20267;-67
2023/09/15 03:07:47;;;;;;;10.77;9.77;;;;;;;19.38;67.22;95134.34;5116516;28;20233;-67
2023/09/15 03:10:15;;;;;;;11.70;9.82;;;;;;;19.38;67.05;95139.94;5117428;28;20194;-67
2023/09/15 03:12:43;;;;;;;10.45;9.45;;;;;;;19.38;67.12;95139.94;5117281;28;20216;-67
2023/09/15 03:15:13;;;;;;;10.85;9.75;;;;;;;19.37;67.19;95141.16;5097061;28;20279;-67
2023/09/15 03:17:39;;;;;;;10.40;9.40;;;;;;;19.35;67.28;95146.34;5033431;28;20247;-67
2023/09/15 03:20:13;;;;;;;10.38;9.45;;;;;;;19.30;67.25;95141.19;5033464;28;20215;-67
2023/09/15 03:22:41;;;;;;;11.60;10.30;;;;;;;19.28;67.45;95146.38;5102159;28;20202;-67
2023/09/15 03:25:08;;;;;;;12.77;10.15;;;;;;;19.26;67.50;95148.81;5033199;28;20214;-67
2023/09/15 03:27:36;;;;;;;11.00;9.48;;;;;;;19.23;67.67;95150.41;5101402;28;20183;-68
2023/09/15 03:30:04;;;;;;;11.30;10.30;;;;;;;19.21;67.45;95150.81;5101831;28;20203;-68
2023/09/15 03:32:34;;;;;;;11.88;10.20;;;;;;;19.19;67.79;95156.00;5102256;28;20213;-67
2023/09/15 03:35:05;;;;;;;11.15;9.90;;;;;;;19.16;68.02;95153.25;5102320;28;20247;-68
2023/09/15 03:37:33;;;;;;;11.85;10.55;;;;;;;19.12;67.96;95161.63;5033710;28;20205;-68
2023/09/15 03:40:02;;;;;;;10.82;9.73;;;;;;;19.10;67.96;95164.06;5033180;28;20215;-68
2023/09/15 03:42:34;;;;;;;10.98;9.90;;;;;;;19.06;68.00;95159.66;5033410;28;20247;-68
2023/09/15 03:45:03;;;;;;;11.60;10.40;;;;;;;19.04;68.45;95156.50;5033014;28;20214;-68
2023/09/15 03:47:32;;;;;;;11.23;10.10;;;;;;;19.03;68.03;95154.88;5101387;28;20202;-68
2023/09/15 03:50:02;;;;;;;9.80;8.90;;;;;;;19.00;68.12;95157.31;5101331;28;20202;-68
2023/09/15 03:52:30;;;;;;;11.77;10.02;;;;;;;19.00;68.21;95162.88;5032699;28;20661;-68
2023/09/15 03:55:02;;;;;;;11.60;10.20;;;;;;;18.95;67.94;95157.72;5101431;28;20202;-68
2023/09/15 03:57:32;;;;;;;11.48;9.80;;;;;;;18.97;67.56;95163.69;5032655;28;20190;-68
2023/09/15 03:59:59;;;;;;;9.85;8.85;;;;;;;19.01;67.26;95169.28;5101379;28;20238;-73
2023/09/15 04:02:29;;;;;;;8.98;8.02;;;;;;;19.08;65.91;95162.88;5101410;28;20688;-70
2023/09/15 04:04:55;;;;;;;9.10;7.80;;;;;;;19.17;65.38;95163.22;5032766;28;20222;-71
2023/09/15 04:07:23;;;;;;;9.02;8.13;;;;;;;19.20;64.99;95170.78;5101267;28;20201;-71
2023/09/15 04:09:50;;;;;;;8.45;7.70;;;;;;;19.23;64.90;95175.56;5032791;28;20198;-71
2023/09/15 04:12:17;;;;;;;8.90;7.68;;;;;;;19.23;64.13;95176.38;5033003;28;20198;-71
2023/09/15 04:14:47;;;;;;;8.65;7.85;;;;;;;19.24;64.48;95180.78;5101212;28;20251;-70
2023/09/15 04:17:16;;;;;;;8.07;7.25;;;;;;;19.22;64.31;95174.78;5101070;28;20223;-71
2023/09/15 04:19:43;;;;;;;8.02;6.90;;;;;;;19.24;64.23;95179.94;5031607;28;20625;-71
2023/09/15 04:22:11;;;;;;;7.90;7.20;;;;;;;19.26;64.14;95182.34;5032671;28;20194;-70
2023/09/15 04:24:40;;;;;;;7.82;7.13;;;;;;;19.29;64.37;95185.13;5101004;28;20214;-71
2023/09/15 04:27:08;;;;;;;7.65;6.85;;;;;;;19.31;64.32;95181.91;5101259;28;20614;-70
2023/09/15 04:29:50;;;;;;;8.48;7.68;;;;;;;19.32;64.42;95189.09;5032505;28;20194;-70
2023/09/15 04:32:17;;;;;;;7.40;6.80;;;;;;;19.32;64.16;95195.53;5032581;28;20187;-71
2023/09/15 04:34:45;;;;;;;7.55;6.90;;;;;;;19.34;63.87;95190.28;5032432;28;20186;-71
2023/09/15 04:37:15;;;;;;;8.13;7.05;;;;;;;19.35;64.24;95191.09;5032770;28;20186;-70
2023/09/15 04:39:44;;;;;;;8.30;7.50;;;;;;;19.36;64.23;95196.28;5100968;28;20222;-70
2023/09/15 04:42:13;;;;;;;9.25;7.15;;;;;;;19.37;63.98;95197.88;5101335;28;20206;-70
2023/09/15 04:44:41;;;;;;;8.93;8.00;;;;;;;19.38;64.01;95188.28;5101139;28;20709;-70
2023/09/15 04:47:09;;;;;;;7.97;7.28;;;;;;;19.38;63.83;95198.66;5100455;28;20210;-70
2023/09/15 04:49:37;;;;;;;8.13;7.35;;;;;;;19.38;64.21;95204.25;5032156;28;20206;-71
2023/09/15 04:52:06;;;;;;;8.70;7.32;;;;;;;19.37;64.00;95199.88;5032217;28;20197;-70
2023/09/15 04:54:33;;;;;;;8.23;7.43;;;;;;;19.37;64.42;95202.69;5032247;28;20193;-71
2023/09/15 04:57:04;;;;;;;8.23;7.20;;;;;;;19.37;64.19;95209.06;5031789;28;20247;-71
2023/09/15 04:59:32;;;;;;;8.05;7.22;;;;;;;19.38;64.56;95205.06;5032303;28;20190;-70
2023/09/15 05:02:01;;;;;;;8.65;7.82;;;;;;;19.39;64.73;95206.66;5100583;28;20198;-70
2023/09/15 05:04:29;;;;;;;9.05;8.15;;;;;;;19.39;64.35;95203.06;5032036;28;20683;-71
2023/09/15 05:06:57;;;;;;;8.55;7.75;;;;;;;19.40;64.63;95204.66;5032296;28;20195;-71
2023/09/15 05:09:25;;;;;;;9.00;8.02;;;;;;;19.41;65.01;95212.63;5100706;28;20255;-71
2023/09/15 05:11:54;;;;;;;9.07;8.07;;;;;;;19.40;65.07;95210.25;5031884;28;20223;-71
2023/09/15 05:14:24;;;;;;;10.23;9.23;;;;;;;19.41;65.02;95211.84;5100706;28;20206;-71
2023/09/15 05:16:56;;;;;;;9.38;8.48;;;;;;;19.43;65.41;95215.03;5114158;28;20227;-71
2023/09/15 05:19:23;;;;;;;8.85;8.13;;;;;;;19.46;65.77;95217.00;5115634;28;20192;-71
2023/09/15 05:21:50;;;;;;;9.38;8.48;;;;;;;19.48;65.81;95214.59;5114659;28;20200;-71
2023/09/15 05:24:18;;;;;;;9.65;8.75;;;;;;;19.48;65.74;95229.38;5114491;28;20591;-71
2023/09/15 05:26:46;;;;;;;9.52;8.57;;;;;;;19.47;66.00;95225.00;5115420;28;20176;-70
2023/09/15 05:29:14;;;;;;;10.52;9.48;;;;;;;19.50;66.31;95223.41;5114503;28;20188;-71
2023/09/15 05:31:42;;;;;;;9.18;8.38;;;;;;;19.52;66.53;95217.38;5115464;28;20665;-71
2023/09/15 05:34:10;;;;;;;9.68;8.75;;;;;;;19.54;66.92;95215.78;5118931;28;20599;-70
2023/09/15 05:36:37;;;;;;;9.65;8.75;;;;;;;19.56;66.81;95223.75;5118556;28;20203;-72
2023/09/15 05:39:07;;;;;;;10.30;9.38;;;;;;;19.57;67.25;95222.53;5117840;28;20203;-71
2023/09/15 05:41:35;;;;;;;10.43;8.93;;;;;;;19.59;67.68;95223.75;5119183;28;20230;-70
2023/09/15 05:44:03;;;;;;;10.15;9.10;;;;;;;19.62;67.95;95224.94;5119002;28;20211;-71
2023/09/15 05:46:32;;;;;;;9.90;9.10;;;;;;;19.60;67.77;95227.34;5117797;28;20220;-71
2023/09/15 05:49:01;;;;;;;10.48;9.40;;;;;;;19.61;67.77;95223.34;5118325;28;20203;-71
2023/09/15 05:51:29;;;;;;;11.27;9.55;;;;;;;19.62;67.79;95230.53;5118161;28;20196;-71
2023/09/15 05:53:57;;;;;;;9.82;8.63;;;;;;;19.66;67.78;95225.75;5118470;28;20195;-72
2023/09/15 05:56:25;;;;;;;9.93;9.02;;;;;;;19.70;67.88;95232.09;5118345;28;20199;-71
2023/09/15 05:58:55;;;;;;;9.68;8.77;;;;;;;19.70;68.02;95230.09;5118777;28;20603;-71
2023/09/15 06:01:22;;;;;;;9.25;8.48;;;;;;;19.73;67.86;95224.91;5118752;28;20279;-71
2023/09/15 06:03:50;;;;;;;9.95;8.73;;;;;;;19.76;67.64;95224.09;5118505;28;20192;-71
2023/09/15 06:06:20;;;;;;;10.27;8.70;;;;;;;19.78;67.45;95224.47;5118374;28;20199;-70
2023/09/15 06:08:47;;;;;;;9.38;8.32;;;;;;;19.79;67.21;95237.25;5117535;28;20192;-70
2023/09/15 06:11:15;;;;;;;10.43;9.43;;;;;;;19.82;67.10;95222.44;5117459;28;20231;-71
2023/09/15 06:13:42;;;;;;;9.60;8.52;;;;;;;19.83;67.18;95232.44;5118317;28;20195;-71
2023/09/15 06:16:11;;;;;;;10.70;9.10;;;;;;;19.85;67.18;95233.63;5065387;27;20264;-71
2023/09/15 06:18:39;;;;;;;10.13;8.95;;;;;;;19.90;67.03;95227.59;5103572;28;20545;-70
2023/09/15 06:21:05;;;;;;;9.32;8.43;;;;;;;19.94;67.03;95228.38;5034421;28;20247;-71
2023/09/15 06:23:35;;;;;;;9.23;8.32;;;;;;;19.98;67.17;95222.75;5103481;28;20217;-70
2023/09/15 06:26:03;;;;;;;8.63;7.97;;;;;;;19.98;67.18;95228.34;5033893;28;20202;-70
2023/09/15 06:28:31;;;;;;;9.43;8.63;;;;;;;20.02;67.44;95228.31;5034507;28;20183;-71
2023/09/15 06:30:58;;;;;;;9.90;8.50;;;;;;;20.09;66.95;95226.28;5034267;28;20210;-71
2023/09/15 06:33:27;;;;;;;8.65;7.85;;;;;;;20.14;66.57;95234.22;5034328;28;20547;-71
2023/09/15 06:35:56;;;;;;;9.25;8.35;;;;;;;20.18;66.61;95229.38;5102399;28;20500;-71
2023/09/15 06:38:25;;;;;;;9.13;8.23;;;;;;;20.23;66.56;95230.19;5033912;28;20194;-71
2023/09/15 06:41:06;;;;;;;9.32;8.48;;;;;;;20.24;66.04;95235.38;5103381;28;20205;-70
2023/09/15 06:43:36;;;;;;;8.43;7.65;;;;;;;20.28;65.90;95232.53;5102226;28;20213;-71
2023/09/15 06:46:04;;;;;;;8.80;7.90;;;;;;;20.33;65.42;95229.28;5102410;28;20214;-71
2023/09/15 06:48:32;;;;;;;9.88;8.30;;;;;;;20.30;65.55;95230.94;5033888;28;20206;-71
2023/09/15 06:51:00;;;;;;;12.95;9.30;;;;;;;20.28;65.52;95227.72;5102658;28;20214;-71
2023/09/15 06:53:31;;;;;;;10.95;9.85;;;;;;;20.26;65.68;95227.34;5102400;28;20209;-71
2023/09/15 06:56:04;;;;;;;9.55;8.65;;;;;;;20.27;65.92;95216.94;5102712;28;20195;-71
2023/09/15 06:58:31;;;;;;;10.45;8.32;;;;;;;20.28;65.48;95218.53;5103178;28;20197;-71
2023/09/15 07:01:00;;;;;;;9.30;8.38;;;;;;;20.31;65.18;95214.91;5102341;28;20198;-71
2023/09/15 07:03:27;;;;;;;9.57;8.48;;;;;;;20.29;65.24;95220.91;5102452;28;20215;-71
2023/09/15 07:05:55;;;;;;;10.57;9.43;;;;;;;20.31;65.48;95221.31;5101984;28;20226;-71
2023/09/15 07:08:24;;;;;;;9.00;8.20;;;;;;;20.35;65.14;95224.88;5033675;28;20598;-71
2023/09/15 07:10:52;;;;;;;8.65;7.72;;;;;;;20.40;65.24;95220.81;5033378;28;20247;-71
2023/09/15 07:13:22;;;;;;;8.90;8.02;;;;;;;20.47;64.77;95219.97;5033572;28;20195;-71
2023/09/15 07:15:50;;;;;;;7.75;7.05;;;;;;;20.56;64.14;95217.53;5115379;28;20240;-71
2023/09/15 07:18:18;;;;;;;9.15;8.35;;;;;;;20.63;64.09;95218.25;5117183;28;20184;-71
2023/09/15 07:20:46;;;;;;;8.48;7.68;;;;;;;20.67;63.77;95219.03;5115798;28;20244;-71
2023/09/15 07:23:13;;;;;;;8.57;7.78;;;;;;;20.72;63.64;95217.75;5117129;28;20184;-71
2023/09/15 07:25:39;;;;;;;9.55;8.10;;;;;;;20.76;63.35;95209.31;5115835;28;20219;-71
2023/09/15 07:28:08;;;;;;;8.32;7.53;;;;;;;20.78;63.01;95212.53;5116940;28;20268;-71
2023/09/15 07:30:41;;;;;;;7.95;7.22;;;;;;;20.86;62.80;95212.03;5117139;28;20222;-71
2023/09/15 07:33:10;;;;;;;8.38;7.57;;;;;;;20.91;63.01;95214.38;5116206;28;20215;-71
2023/09/15 07:35:37;;;;;;;9.40;8.20;;;;;;;21.00;62.55;95215.91;5115615;28;20195;-71
2023/09/15 07:38:04;;;;;;;8.20;7.40;;;;;;;21.07;62.33;95218.63;5115979;28;20211;-71
2023/09/15 07:40:32;;;;;;;8.88;7.57;;;;;;;21.16;62.44;95216.88;5116929;28;20259;-71
2023/09/15 07:43:01;;;;;;;8.48;7.78;;;;;;;21.26;62.35;95228.41;5116652;28;20214;-71
2023/09/15 07:45:28;;;;;;;8.98;8.18;;;;;;;21.36;61.77;95219.13;5116717;28;20204;-71
2023/09/15 07:48:00;;;;;;;8.82;7.95;;;;;;;21.43;61.40;95209.81;5115613;28;20203;-71
2023/09/15 07:50:28;;;;;;;9.48;8.50;;;;;;;21.52;61.25;95207.28;5116258;28;20535;-71
2023/09/15 07:52:56;;;;;;;9.35;8.25;;;;;;;21.60;60.77;95217.19;5116681;28;20196;-70
2023/09/15 07:55:25;;;;;;;10.45;8.90;;;;;;;21.65;61.22;95211.13;5115749;28;20202;-71
2023/09/15 07:57:52;;;;;;;9.15;8.32;;;;;;;21.72;60.71;95211.03;5115464;28;20595;-71
2023/09/15 08:00:23;;;;;;;9.25;8.40;;;;;;;21.78;60.47;95211.34;5116468;28;20190;-71
2023/09/15 08:02:51;;;;;;;10.10;9.10;;;;;;;21.86;60.69;95212.84;5115806;28;20420;-71
2023/09/15 08:05:19;;;;;;;9.52;8.70;;;;;;;21.99;60.51;95213.06;5115192;28;20650;-71
2023/09/15 08:07:48;;;;;;;10.30;9.30;;;;;;;22.08;59.43;95210.53;5115239;28;20244;-71
2023/09/15 08:10:18;;;;;;;9.05;8.23;;;;;;;22.13;59.10;95209.25;5115623;28;20187;-71
2023/09/15 08:12:48;;;;;;;9.77;8.88;;;;;;;22.23;58.82;95213.94;5115676;28;20230;-71
2023/09/15 08:15:16;;;;;;;9.90;9.00;;;;;;;22.31;58.63;95207.78;5095988;28;20257;-71
2023/09/15 08:17:44;;;;;;;10.15;9.15;;;;;;;22.36;58.55;95206.47;5101060;28;20251;-71
2023/09/15 08:20:13;;;;;;;11.43;9.68;;;;;;;22.43;58.21;95209.19;5032443;28;20202;-71
2023/09/15 08:22:43;;;;;;;9.82;8.43;;;;;;;22.48;57.88;95202.31;5032269;28;20551;-71
2023/09/15 08:25:11;;;;;;;9.02;8.23;;;;;;;22.53;57.77;95196.97;5032605;28;20206;-70
2023/09/15 08:27:38;;;;;;;9.02;8.23;;;;;;;22.55;57.18;95200.16;5100857;28;20606;-71
2023/09/15 08:30:08;;;;;;;9.63;8.75;;;;;;;22.59;56.72;95194.47;5100894;28;20205;-71
2023/09/15 08:32:36;;;;;;;10.82;8.25;;;;;;;22.63;56.59;95198.00;5032337;28;20206;-71
2023/09/15 08:35:05;;;;;;;9.52;8.52;;;;;;;22.64;56.59;95196.78;5101150;28;20209;-71
2023/09/15 08:37:33;;;;;;;10.45;9.20;;;;;;;22.66;56.48;95199.97;5032536;28;20251;-71
2023/09/15 08:40:05;;;;;;;8.98;8.10;;;;;;;22.66;56.57;95193.53;5032405;28;20205;-71
2023/09/15 08:42:33;;;;;;;10.95;9.55;;;;;;;22.68;56.40;95188.28;5101111;28;20202;-71
2023/09/15 08:45:04;;;;;;;9.57;8.65;;;;;;;22.70;56.53;95188.66;5032434;28;20201;-70
2023/09/15 08:47:34;;;;;;;9.82;8.93;;;;;;;22.74;56.63;95187.38;5100867;28;20287;-71
2023/09/15 08:50:04;;;;;;;9.88;8.98;;;;;;;22.77;55.79;95185.72;5032321;28;20194;-71
2023/09/15 08:52:33;;;;;;;9.45;8.75;;;;;;;22.84;56.29;95182.78;5032190;28;20203;-71
2023/09/15 08:55:03;;;;;;;10.20;9.00;;;;;;;22.93;56.27;95179.44;5032245;28;20183;-71
2023/09/15 08:57:32;;;;;;;10.13;9.13;;;;;;;23.00;56.33;95174.47;5032168;28;20201;-71
2023/09/15 09:00:00;;;;;;;10.07;9.10;;;;;;;23.11;56.01;95171.44;5100447;28;20199;-71
2023/09/15 09:02:28;;;;;;;9.85;8.88;;;;;;;23.18;54.98;95164.88;5100744;28;20202;-71
2023/09/15 09:04:56;;;;;;;10.60;9.70;;;;;;;23.33;55.34;95174.63;5031823;28;20231;-71
2023/09/15 09:07:24;;;;;;;11.07;9.52;;;;;;;23.40;54.79;95168.03;5104401;28;20218;-71
2023/09/15 09:09:55;;;;;;;10.10;9.20;;;;;;;23.45;53.57;95159.88;5106550;28;20198;-71
2023/09/15 09:12:24;;;;;;;11.85;9.45;;;;;;;23.47;53.70;95165.09;5035261;28;20206;-71
2023/09/15 09:14:55;;;;;;;10.50;9.50;;;;;;;23.48;53.40;95166.66;5104720;28;20210;-71
2023/09/15 09:17:23;;;;;;;11.85;9.35;;;;;;;23.48;52.97;95158.22;5104556;28;20642;-71
2023/09/15 09:19:50;;;;;;;9.43;8.63;;;;;;;23.60;52.93;95163.16;5035331;28;20194;-71
2023/09/15 09:22:19;;;;;;;9.75;8.85;;;;;;;23.85;52.13;95165.47;5035085;28;20193;-71
2023/09/15 09:24:53;;;;;;;10.60;9.57;;;;;;;24.00;51.54;95166.75;5035394;28;20206;-71
2023/09/15 09:27:21;;;;;;;10.13;9.13;;;;;;;24.11;52.44;95174.13;5104572;28;20218;-71
2023/09/15 09:29:49;;;;;;;9.82;9.02;;;;;;;24.21;51.10;95173.88;5104292;28;20578;-71
2023/09/15 09:32:16;;;;;;;10.10;9.20;;;;;;;24.32;50.13;95162.34;5104511;28;20203;-71
2023/09/15 09:34:49;;;;;;;9.57;8.68;;;;;;;24.39;50.66;95162.19;5104449;28;20205;-71
2023/09/15 09:37:17;;;;;;;10.23;9.18;;;;;;;24.41;50.11;95167.41;5103850;28;20206;-71
2023/09/15 09:39:44;;;;;;;9.68;8.88;;;;;;;24.43;50.29;95157.25;5034880;28;20187;-71
2023/09/15 09:42:12;;;;;;;9.73;8.98;;;;;;;24.52;51.00;95155.88;5104537;28;20274;-71
2023/09/15 09:44:41;;;;;;;9.77;8.95;;;;;;;24.60;50.22;95148.81;5034962;28;20206;-71
2023/09/15 09:47:10;;;;;;;10.63;9.57;;;;;;;24.66;50.24;95158.31;5103893;28;20226;-71
2023/09/15 09:49:38;;;;;;;9.32;8.52;;;;;;;24.71;50.26;95152.13;5103988;28;20195;-71
2023/09/15 09:52:06;;;;;;;9.43;8.27;;;;;;;24.70;50.63;95147.72;5103418;28;20251;-72
2023/09/15 09:54:35;;;;;;;9.90;9.10;;;;;;;24.81;51.01;95153.88;5035034;28;20209;-71
2023/09/15 09:57:02;;;;;;;9.77;8.77;;;;;;;24.88;50.83;95145.22;5103977;28;20198;-71
2023/09/15 09:59:30;;;;;;;9.65;8.75;;;;;;;24.92;50.26;95147.94;5034442;28;20557;-71
2023/09/15 10:01:58;;;;;;;9.63;8.82;;;;;;;24.95;49.96;95132.97;5103498;28;20259;-71
2023/09/15 10:04:28;;;;;;;9.77;8.85;;;;;;;24.96;50.24;95143.78;5087020;28;20209;-71
2023/09/15 10:06:55;;;;;;;10.02;9.13;;;;;;;25.03;50.24;95148.44;5103545;28;20226;-71
2023/09/15 10:09:24;;;;;;;9.52;8.65;;;;;;;25.16;49.60;95142.84;5034868;28;20323;-71
2023/09/15 10:11:51;;;;;;;9.65;8.77;;;;;;;25.20;49.44;95146.38;5034660;28;20269;-71
2023/09/15 10:14:20;;;;;;;10.23;9.10;;;;;;;25.20;49.37;95143.53;5034407;28;20202;-71
2023/09/15 10:16:47;;;;;;;11.60;10.23;;;;;;;25.20;49.39;95147.19;5034191;28;20303;-71
2023/09/15 10:19:16;;;;;;;11.35;9.32;;;;;;;25.26;48.71;95149.44;5102902;28;20201;-71
2023/09/15 10:21:47;;;;;;;10.00;8.43;;;;;;;25.23;48.04;95142.66;5102780;28;20618;-71
2023/09/15 10:24:16;;;;;;;9.48;8.55;;;;;;;25.23;48.51;95139.06;5034558;28;20289;-71
2023/09/15 10:26:44;;;;;;;10.23;9.20;;;;;;;25.26;48.29;95133.31;5102886;28;20653;-71
2023/09/15 10:29:13;;;;;;;9.63;8.80;;;;;;;25.31;47.96;95134.78;5102878;28;20210;-71
2023/09/15 10:31:41;;;;;;;9.98;9.07;;;;;;;25.37;47.37;95135.81;5103064;28;20274;-71
2023/09/15 10:34:09;;;;;;;9.55;8.60;;;;;;;25.34;47.53;95136.72;5102681;28;20202;-71
2023/09/15 10:36:36;;;;;;;10.18;9.13;;;;;;;25.18;47.22;95123.47;5103561;28;20255;-71
2023/09/15 10:39:16;;;;;;;9.98;9.05;;;;;;;25.09;47.78;95126.91;5033843;28;20581;-71
2023/09/15 10:41:45;;;;;;;9.60;8.80;;;;;;;25.13;47.72;95124.03;5103110;28;20206;-71
2023/09/15 10:44:13;;;;;;;9.82;8.95;;;;;;;25.14;48.35;95120.75;5034353;28;20199;-71
2023/09/15 10:46:43;;;;;;;9.98;9.07;;;;;;;25.32;47.80;95120.22;5033721;28;20267;-71
2023/09/15 10:49:18;;;;;;;10.52;9.63;;;;;;;25.41;47.26;95117.53;5034193;28;20190;-72
2023/09/15 10:51:54;;;;;;;10.13;9.13;;;;;;;25.59;47.29;95116.19;5033860;28;20201;-71
2023/09/15 10:54:25;;;;;;;9.65;8.85;;;;;;;25.65;45.80;95103.91;5102600;28;20202;-71
2023/09/15 10:56:55;;;;;;;10.55;9.57;;;;;;;25.67;46.54;95106.25;5102861;28;20195;-71
2023/09/15 10:59:23;;;;;;;10.45;9.45;;;;;;;25.68;47.07;95110.69;5034014;28;20209;-72
2023/09/15 11:01:52;;;;;;;11.10;10.07;;;;;;;25.79;45.97;95116.81;5033914;28;20190;-70
2023/09/15 11:04:21;;;;;;;12.00;10.13;;;;;;;25.89;45.67;95109.22;5103488;28;20255;-71
2023/09/15 11:06:51;;;;;;;11.35;10.00;;;;;;;25.91;45.10;95103.94;5034715;28;20203;-72
2023/09/15 11:09:19;;;;;;;11.52;10.27;;;;;;;25.84;45.68;95102.13;5034710;28;20198;-71
2023/09/15 11:11:48;;;;;;;11.38;10.27;;;;;;;25.88;45.82;95097.16;5103243;28;20230;-71
2023/09/15 11:14:17;;;;;;;11.65;10.55;;;;;;;25.94;45.43;95094.56;5102964;28;20198;-71
2023/09/15 11:16:48;;;;;;;10.93;10.00;;;;;;;25.96;45.12;95091.28;5033732;28;20248;-71
2023/09/15 11:19:17;;;;;;;11.18;10.10;;;;;;;25.84;45.16;95093.66;5033694;28;20625;-71
2023/09/15 11:21:45;;;;;;;12.75;10.60;;;;;;;25.81;44.85;95085.28;5102245;28;20290;-71
2023/09/15 11:24:13;;;;;;;12.15;11.13;;;;;;;25.90;45.59;95079.75;5102585;28;20206;-70
2023/09/15 11:26:53;;;;;;;11.10;10.00;;;;;;;26.08;44.49;95084.84;5102196;28;20234;-71
2023/09/15 11:29:25;;;;;;;11.57;10.55;;;;;;;26.20;44.19;95078.38;5102367;28;20613;-72
2023/09/15 11:31:53;;;;;;;12.32;11.15;;;;;;;26.32;44.11;95079.56;5102240;28;20202;-71
2023/09/15 11:34:22;;;;;;;12.07;10.95;;;;;;;26.48;43.15;95079.47;5033723;28;20195;-71
2023/09/15 11:36:49;;;;;;;12.25;10.85;;;;;;;26.50;42.43;95073.34;5033493;28;20194;-70